Time;durP1;ratioP1;P1;durP2;ratioP2;P2;SDS_P1;SDS_P2;PMS_P1;PMS_P2;Temp;Humidity;BMP_temperature;BMP_pressure;BME280_temperature;BME280_humidity;BME280_pressure;Samples;Min_cycle;Max_cycle;Signal;HPM_P1;HPM_P2
2021/04/10 00:00:10;;;;;;;5.47;2.97;;;;;;;;;;5039088;28;20223;-72
2021/04/10 00:03:15;;;;;;;6.40;3.53;;;;;;;;;;5036934;28;20220;-73
2021/04/10 00:06:19;;;;;;;5.47;3.17;;;;;;;;;;5017170;28;20209;-73
2021/04/10 00:09:24;;;;;;;5.33;3.10;;;;;;;;;;5034643;28;20224;-72
2021/04/10 00:12:28;;;;;;;7.17;3.47;;;;;;;;;;5036342;28;20181;-73
2021/04/10 00:15:32;;;;;;;5.63;3.00;;;;;;;;;;5036281;28;20535;-72
2021/04/10 00:18:38;;;;;;;12.57;3.07;;;;;;;;;;5041916;28;20215;-72
2021/04/10 00:21:42;;;;;;;7.97;2.90;;;;;;;;;;5056578;28;20200;-72
2021/04/10 00:24:46;;;;;;;4.10;2.70;;;;;;;;;;5049577;28;20205;-72
2021/04/10 00:27:50;;;;;;;4.53;2.80;;;;;;;;;;5036549;28;20239;-72
2021/04/10 00:31:06;;;;;;;6.47;3.30;;;;;;;;;;5035658;28;20197;-72
2021/04/10 00:34:10;;;;;;;5.37;3.03;;;;;;;;;;5036412;28;20192;-72
2021/04/10 00:37:14;;;;;;;3.90;2.93;;;;;;;;;;5016866;28;20521;-73
2021/04/10 00:40:18;;;;;;;6.10;2.90;;;;;;;;;;5050940;28;20220;-72
2021/04/10 00:43:22;;;;;;;8.33;3.73;;;;;;;;;;5035683;28;20579;-72
2021/04/10 00:46:26;;;;;;;6.57;3.17;;;;;;;;;;5055550;28;20200;-72
2021/04/10 00:49:30;;;;;;;9.10;3.33;;;;;;;;;;5044061;28;20224;-72
2021/04/10 00:52:36;;;;;;;6.60;3.23;;;;;;;;;;5016556;28;20201;-73
2021/04/10 00:55:43;;;;;;;3.87;2.93;;;;;;;;;;5016462;28;20186;-73
2021/04/10 00:58:48;;;;;;;3.53;2.77;;;;;;;;;;5035778;28;20215;-73
2021/04/10 01:01:52;;;;;;;3.50;2.60;;;;;;;;;;5055044;28;20203;-72
2021/04/10 01:04:57;;;;;;;4.43;2.70;;;;;;;;;;5030027;28;20219;-72
2021/04/10 01:08:03;;;;;;;5.90;2.73;;;;;;;;;;5018615;28;20533;-70
2021/04/10 01:11:24;;;;;;;5.23;3.20;;;;;;;;;;5034984;28;20185;-72
2021/04/10 01:14:56;;;;;;;5.63;3.07;;;;;;;;;;5023920;28;20628;-72
2021/04/10 01:18:14;;;;;;;4.07;3.10;;;;;;;;;;5037617;28;20547;-71
2021/04/10 01:21:35;;;;;;;6.17;3.20;;;;;;;;;;5035990;28;20201;-71
2021/04/10 01:25:04;;;;;;;7.67;3.10;;;;;;;;;;5034989;28;20177;-71
2021/04/10 01:28:35;;;;;;;3.63;2.90;;;;;;;;;;5037988;28;20651;-71
2021/04/10 01:31:49;;;;;;;5.30;2.93;;;;;;;;;;5043360;28;20524;-72
2021/04/10 01:35:22;;;;;;;4.90;3.00;;;;;;;;;;5044912;28;20188;-71
2021/04/10 01:38:30;;;;;;;7.00;3.03;;;;;;;;;;5041061;28;20211;-71
2021/04/10 01:41:40;;;;;;;5.40;3.10;;;;;;;;;;5050679;28;20537;-71
2021/04/10 01:44:47;;;;;;;7.33;2.90;;;;;;;;;;5034627;28;20181;-72
2021/04/10 01:47:57;;;;;;;5.90;2.97;;;;;;;;;;5036661;28;20201;-71
2021/04/10 01:51:03;;;;;;;5.70;2.90;;;;;;;;;;5036562;28;20563;-71
2021/04/10 01:54:10;;;;;;;5.63;2.77;;;;;;;;;;5035100;28;20185;-71
2021/04/10 01:57:19;;;;;;;4.20;2.97;;;;;;;;;;5034529;28;20177;-72
2021/04/10 02:00:28;;;;;;;3.53;2.57;;;;;;;;;;5051913;28;20212;-71
2021/04/10 02:03:42;;;;;;;2.90;2.30;;;;;;;;;;5053836;28;20216;-72
2021/04/10 02:06:49;;;;;;;4.47;2.77;;;;;;;;;;5015231;28;20190;-72
2021/04/10 02:09:55;;;;;;;3.50;2.60;;;;;;;;;;5052234;28;20212;-71
2021/04/10 02:13:15;;;;;;;4.03;2.40;;;;;;;;;;5053846;28;20176;-71
2021/04/10 02:16:23;;;;;;;9.47;3.03;;;;;;;;;;5034525;28;20185;-72
2021/04/10 02:19:33;;;;;;;7.20;3.00;;;;;;;;;;5059949;28;20219;-71
2021/04/10 02:22:50;;;;;;;9.03;2.47;;;;;;;;;;5053651;28;20212;-72
2021/04/10 02:26:01;;;;;;;4.73;2.60;;;;;;;;;;5051902;28;20201;-70
2021/04/10 02:29:07;;;;;;;7.07;2.60;;;;;;;;;;5042080;28;20220;-71
2021/04/10 02:32:17;;;;;;;6.83;2.40;;;;;;;;;;5033394;28;20181;-72
2021/04/10 02:35:46;;;;;;;3.40;2.50;;;;;;;;;;5039721;28;20694;-71
2021/04/10 02:38:53;;;;;;;4.93;3.00;;;;;;;;;;5043143;28;20266;-71
2021/04/10 02:42:01;;;;;;;5.03;2.50;;;;;;;;;;5033177;28;20177;-72
2021/04/10 02:45:07;;;;;;;5.30;2.73;;;;;;;;;;5036332;28;20188;-70
2021/04/10 02:48:22;;;;;;;4.23;2.87;;;;;;;;;;5047628;28;20193;-71
2021/04/10 02:51:35;;;;;;;6.27;2.67;;;;;;;;;;5033345;28;20181;-72
2021/04/10 02:54:49;;;;;;;3.17;2.13;;;;;;;;;;5033255;28;20176;-70
2021/04/10 02:58:00;;;;;;;3.57;2.40;;;;;;;;;;5028345;28;20205;-70
2021/04/10 03:01:05;;;;;;;3.70;2.57;;;;;;;;;;5039649;28;20196;-71
2021/04/10 03:04:13;;;;;;;10.90;2.73;;;;;;;;;;5034411;28;20225;-71
2021/04/10 03:07:18;;;;;;;5.17;2.70;;;;;;;;;;5013614;28;20185;-72
2021/04/10 03:10:25;;;;;;;6.00;3.13;;;;;;;;;;5013363;28;20221;-72
2021/04/10 03:13:31;;;;;;;6.77;2.97;;;;;;;;;;5023726;28;20197;-72
2021/04/10 03:16:45;;;;;;;4.53;2.73;;;;;;;;;;5033829;28;20189;-72
2021/04/10 03:19:55;;;;;;;5.70;3.13;;;;;;;;;;5050828;28;20220;-71
2021/04/10 03:22:59;;;;;;;3.40;2.97;;;;;;;;;;5013529;28;20217;-72
2021/04/10 03:26:10;;;;;;;4.90;3.33;;;;;;;;;;5024426;28;20185;-72
2021/04/10 03:29:16;;;;;;;6.43;3.00;;;;;;;;;;5041602;28;20594;-71
2021/04/10 03:32:26;;;;;;;6.13;2.53;;;;;;;;;;5052124;28;20639;-71
2021/04/10 03:35:32;;;;;;;8.00;2.87;;;;;;;;;;5021497;28;20180;-71
2021/04/10 03:38:41;;;;;;;5.87;2.20;;;;;;;;;;5032285;28;20626;-72
2021/04/10 03:41:47;;;;;;;4.83;2.47;;;;;;;;;;5025756;28;20202;-71
2021/04/10 03:44:54;;;;;;;4.50;2.30;;;;;;;;;;5013050;28;20170;-72
2021/04/10 03:47:58;;;;;;;4.67;2.33;;;;;;;;;;5032300;28;20192;-70
2021/04/10 03:51:11;;;;;;;3.43;2.23;;;;;;;;;;5044305;28;20643;-71
2021/04/10 03:54:22;;;;;;;3.73;2.23;;;;;;;;;;5036823;28;20197;-70
2021/04/10 03:57:28;;;;;;;5.10;2.27;;;;;;;;;;5032536;28;20188;-72
2021/04/10 04:00:32;;;;;;;6.00;2.17;;;;;;;;;;5047791;28;20201;-70
2021/04/10 04:03:41;;;;;;;4.90;2.10;;;;;;;;;;5032260;28;20704;-72
2021/04/10 04:06:45;;;;;;;5.93;2.33;;;;;;;;;;5063089;22;20236;-72
2021/04/10 04:09:50;;;;;;;6.60;2.40;;;;;;;;;;5063911;28;20220;-73
2021/04/10 04:12:54;;;;;;;5.63;2.07;;;;;;;;;;5063115;28;20184;-72
2021/04/10 04:15:58;;;;;;;4.77;2.13;;;;;;;;;;5053032;28;20631;-72
2021/04/10 04:19:02;;;;;;;4.73;2.00;;;;;;;;;;5064514;28;20219;-72
2021/04/10 04:22:06;;;;;;;2.93;2.00;;;;;;;;;;5052689;28;20180;-73
2021/04/10 04:25:11;;;;;;;5.60;2.30;;;;;;;;;;5052672;28;20172;-72
2021/04/10 04:28:17;;;;;;;3.13;2.13;;;;;;;;;;5051973;28;20192;-73
2021/04/10 04:31:21;;;;;;;4.97;1.90;;;;;;;;;;5052086;28;20176;-72
2021/04/10 04:34:25;;;;;;;3.67;2.00;;;;;;;;;;5071756;28;20181;-73
2021/04/10 04:37:29;;;;;;;4.60;2.07;;;;;;;;;;5072864;28;20179;-72
2021/04/10 04:40:33;;;;;;;3.23;2.13;;;;;;;;;;5073817;28;20183;-73
2021/04/10 04:43:38;;;;;;;5.03;1.80;;;;;;;;;;5063913;28;20212;-72
2021/04/10 04:46:42;;;;;;;3.27;1.93;;;;;;;;;;5056494;28;20524;-73
2021/04/10 04:49:46;;;;;;;6.83;2.10;;;;;;;;;;5055486;28;20212;-72
2021/04/10 04:52:51;;;;;;;4.50;2.10;;;;;;;;;;5061096;28;20183;-72
2021/04/10 04:55:55;;;;;;;6.07;1.90;;;;;;;;;;5075430;28;20180;-72
2021/04/10 04:58:59;;;;;;;7.03;1.90;;;;;;;;;;5075719;28;20215;-72
2021/04/10 05:02:03;;;;;;;5.63;2.33;;;;;;;;;;5075291;28;20183;-72
2021/04/10 05:05:08;;;;;;;4.93;2.20;;;;;;;;;;5055413;28;20203;-72
2021/04/10 05:08:12;;;;;;;3.90;1.90;;;;;;;;;;5055351;28;20192;-72
2021/04/10 05:11:17;;;;;;;4.93;1.93;;;;;;;;;;5043624;28;20169;-72
2021/04/10 05:14:21;;;;;;;3.60;2.13;;;;;;;;;;5071769;28;20187;-72
2021/04/10 05:17:25;;;;;;;3.53;1.90;;;;;;;;;;5075394;28;20179;-72
2021/04/10 05:20:29;;;;;;;5.23;1.87;;;;;;;;;;5068246;28;20187;-72
2021/04/10 05:23:33;;;;;;;5.67;2.53;;;;;;;;;;5065547;28;20209;-72
2021/04/10 05:26:37;;;;;;;4.97;1.80;;;;;;;;;;5055766;28;20193;-72
2021/04/10 05:29:41;;;;;;;5.97;2.23;;;;;;;;;;5060293;28;20215;-72
2021/04/10 05:32:46;;;;;;;5.07;2.20;;;;;;;;;;5071599;28;20204;-72
2021/04/10 05:35:50;;;;;;;3.23;1.83;;;;;;;;;;5055556;28;20189;-72
2021/04/10 05:38:54;;;;;;;10.43;2.20;;;;;;;;;;5061095;28;20211;-72
2021/04/10 05:41:59;;;;;;;7.93;2.20;;;;;;;;;;5054743;28;20627;-72
2021/04/10 05:45:03;;;;;;;4.00;1.90;;;;;;;;;;5054466;28;20207;-73
2021/04/10 05:48:08;;;;;;;5.03;1.93;;;;;;;;;;5054264;28;20188;-72
2021/04/10 05:51:12;;;;;;;4.57;2.03;;;;;;;;;;5071648;28;20207;-72
2021/04/10 05:54:16;;;;;;;3.60;1.97;;;;;;;;;;5073607;28;20187;-73
2021/04/10 05:57:20;;;;;;;4.63;2.07;;;;;;;;;;5055203;28;20176;-73
2021/04/10 06:00:24;;;;;;;2.93;2.13;;;;;;;;;;5066474;28;20215;-73
2021/04/10 06:03:30;;;;;;;3.40;2.23;;;;;;;;;;5064746;28;20212;-73
2021/04/10 06:06:34;;;;;;;4.80;2.37;;;;;;;;;;5054662;28;20207;-73
2021/04/10 06:09:38;;;;;;;3.87;1.73;;;;;;;;;;5058105;28;20211;-76
2021/04/10 06:12:43;;;;;;;5.30;2.40;;;;;;;;;;5052867;28;20228;-73
2021/04/10 06:15:47;;;;;;;6.80;2.00;;;;;;;;;;5054503;28;20176;-73
2021/04/10 06:18:51;;;;;;;2.93;1.83;;;;;;;;;;5054102;28;20220;-73
2021/04/10 06:21:55;;;;;;;5.13;2.20;;;;;;;;;;5058019;28;20187;-74
2021/04/10 06:25:00;;;;;;;6.10;2.60;;;;;;;;;;5064117;28;20203;-73
2021/04/10 06:28:04;;;;;;;6.40;1.90;;;;;;;;;;5063229;28;20191;-73
2021/04/10 06:31:08;;;;;;;5.87;2.00;;;;;;;;;;5072797;28;20196;-73
2021/04/10 06:34:12;;;;;;;5.07;2.20;;;;;;;;;;5074097;28;20180;-73
2021/04/10 06:37:17;;;;;;;5.07;3.90;;;;;;;;;;5073499;28;20682;-74
2021/04/10 06:40:21;;;;;;;4.23;2.07;;;;;;;;;;5069037;28;20212;-72
2021/04/10 06:43:25;;;;;;;5.67;2.10;;;;;;;;;;5054152;28;20188;-72
2021/04/10 06:46:34;;;;;;;5.30;2.00;;;;;;;;;;5068343;28;20191;-73
2021/04/10 06:49:38;;;;;;;6.60;1.93;;;;;;;;;;5059470;28;20702;-74
2021/04/10 06:52:43;;;;;;;5.37;2.17;;;;;;;;;;5053878;28;20192;-73
2021/04/10 06:55:53;;;;;;;9.10;2.93;;;;;;;;;;5065288;28;20171;-73
2021/04/10 06:59:06;;;;;;;4.20;1.60;;;;;;;;;;5060604;28;20211;-73
2021/04/10 07:02:11;;;;;;;4.77;1.97;;;;;;;;;;5063699;28;20665;-72
2021/04/10 07:05:16;;;;;;;3.13;1.83;;;;;;;;;;5064601;28;20697;-72
2021/04/10 07:08:24;;;;;;;3.60;1.60;;;;;;;;;;5070182;28;20539;-73
2021/04/10 07:11:28;;;;;;;3.87;1.57;;;;;;;;;;5066379;28;20195;-72
2021/04/10 07:14:34;;;;;;;5.17;1.63;;;;;;;;;;5072834;28;20179;-72
2021/04/10 07:17:38;;;;;;;5.57;2.17;;;;;;;;;;5053396;28;20195;-73
2021/04/10 07:20:42;;;;;;;4.43;1.83;;;;;;;;;;5063292;28;20195;-72
2021/04/10 07:23:51;;;;;;;11.60;2.10;;;;;;;;;;5059426;28;20207;-72
2021/04/10 07:26:58;;;;;;;5.40;1.57;;;;;;;;;;5073407;28;20183;-73
2021/04/10 07:30:02;;;;;;;4.63;1.97;;;;;;;;;;5067353;28;20215;-71
2021/04/10 07:33:07;;;;;;;3.60;2.07;;;;;;;;;;5041099;28;20180;-72
2021/04/10 07:36:15;;;;;;;5.13;1.80;;;;;;;;;;5067428;28;20199;-73
2021/04/10 07:39:19;;;;;;;6.40;1.50;;;;;;;;;;5072845;28;20219;-72
2021/04/10 07:42:25;;;;;;;6.10;1.70;;;;;;;;;;5072330;28;20192;-72
2021/04/10 07:45:32;;;;;;;7.03;1.70;;;;;;;;;;5073006;28;20195;-73
2021/04/10 07:48:37;;;;;;;7.40;2.17;;;;;;;;;;5072233;28;20219;-72
2021/04/10 07:51:50;;;;;;;4.33;1.67;;;;;;;;;;5073213;28;20179;-72
2021/04/10 07:54:55;;;;;;;7.70;1.53;;;;;;;;;;5068136;28;20670;-71
2021/04/10 07:58:25;;;;;;;3.97;1.77;;;;;;;;;;5052388;28;20172;-72
2021/04/10 08:01:30;;;;;;;2.53;1.40;;;;;;;;;;5060372;28;20183;-71
2021/04/10 08:04:34;;;;;;;3.80;1.37;;;;;;;;;;5069242;28;20199;-72
2021/04/10 08:07:38;;;;;;;4.20;1.43;;;;;;;;;;5072963;28;20661;-72
2021/04/10 08:10:42;;;;;;;4.77;1.40;;;;;;;;;;5072368;28;20187;-72
2021/04/10 08:13:57;;;;;;;6.90;1.80;;;;;;;;;;5072839;28;20191;-71
2021/04/10 08:17:02;;;;;;;4.97;1.50;;;;;;;;;;5061000;28;20180;-72
2021/04/10 08:20:26;;;;;;;7.20;1.70;;;;;;;;;;5056525;28;20215;-72
2021/04/10 08:23:30;;;;;;;3.37;1.50;;;;;;;;;;5056975;28;20180;-71
2021/04/10 08:26:35;;;;;;;3.83;2.30;;;;;;;;;;5056408;28;20176;-71
2021/04/10 08:29:42;;;;;;;3.27;1.90;;;;;;;;;;5060901;28;20215;-71
2021/04/10 08:32:46;;;;;;;3.83;1.80;;;;;;;;;;5076293;28;20179;-72
2021/04/10 08:35:51;;;;;;;3.30;1.70;;;;;;;;;;5076442;28;20191;-72
2021/04/10 08:39:04;;;;;;;2.30;1.70;;;;;;;;;;5060980;28;20216;-73
2021/04/10 08:42:17;;;;;;;3.10;1.37;;;;;;;;;;5034300;28;20180;-72
2021/04/10 08:45:40;;;;;;;7.77;1.67;;;;;;;;;;5064487;28;20207;-72
2021/04/10 08:48:48;;;;;;;4.33;1.63;;;;;;;;;;5075999;28;20256;-72
2021/04/10 08:51:57;;;;;;;6.07;2.10;;;;;;;;;;5056042;28;20184;-72
2021/04/10 08:55:02;;;;;;;8.67;2.07;;;;;;;;;;5055147;28;20177;-72
2021/04/10 08:58:29;;;;;;;9.93;2.03;;;;;;;;;;5056099;28;20176;-73
2021/04/10 09:01:35;;;;;;;13.17;1.87;;;;;;;;;;5061703;28;20192;-73
2021/04/10 09:04:59;;;;;;;8.00;4.40;;;;;;;;;;5054898;28;20200;-73
2021/04/10 09:08:04;;;;;;;10.93;3.53;;;;;;;;;;5056415;28;20547;-73
2021/04/10 09:11:17;;;;;;;6.10;2.47;;;;;;;;;;5055962;28;20196;-73
2021/04/10 09:14:51;;;;;;;3.53;1.83;;;;;;;;;;5056391;28;20666;-73
2021/04/10 09:17:58;;;;;;;8.07;3.17;;;;;;;;;;5063063;28;20598;-72
2021/04/10 09:21:10;;;;;;;7.47;2.87;;;;;;;;;;5059979;28;20192;-73
2021/04/10 09:24:22;;;;;;;9.93;3.70;;;;;;;;;;5066739;28;20543;-73
2021/04/10 09:27:28;;;;;;;6.63;2.43;;;;;;;;;;5073574;28;20183;-73
2021/04/10 09:30:39;;;;;;;6.17;2.67;;;;;;;;;;5063596;28;20188;-73
2021/04/10 09:33:43;;;;;;;10.07;3.27;;;;;;;;;;5068311;28;20519;-73
2021/04/10 09:36:47;;;;;;;3.30;2.13;;;;;;;;;;5075486;28;20507;-73
2021/04/10 09:40:00;;;;;;;5.90;3.00;;;;;;;;;;5075208;28;20211;-73
2021/04/10 09:43:05;;;;;;;3.53;1.83;;;;;;;;;;5067836;28;20192;-72
2021/04/10 09:46:35;;;;;;;7.00;2.53;;;;;;;;;;5069291;28;20547;-73
2021/04/10 09:49:39;;;;;;;3.77;1.50;;;;;;;;;;5055130;28;20212;-73
2021/04/10 09:52:43;;;;;;;6.03;1.83;;;;;;;;;;5064119;28;20184;-73
2021/04/10 09:55:50;;;;;;;6.33;1.63;;;;;;;;;;5074805;28;20176;-73
2021/04/10 09:58:56;;;;;;;4.60;2.00;;;;;;;;;;5060145;28;20215;-74
2021/04/10 10:02:00;;;;;;;3.43;1.63;;;;;;;;;;5072208;28;20187;-73
2021/04/10 10:05:04;;;;;;;4.93;1.23;;;;;;;;;;5070186;28;20560;-74
2021/04/10 10:08:14;;;;;;;42.93;4.13;;;;;;;;;;5057660;22;20576;-85
2021/04/10 10:11:19;;;;;;;5.13;1.67;;;;;;;;;;5012162;28;20197;-83
2021/04/10 10:14:24;;;;;;;2.87;1.60;;;;;;;;;;5023498;28;20184;-83
2021/04/10 10:17:29;;;;;;;3.83;1.50;;;;;;;;;;5003048;28;20217;-83
2021/04/10 10:20:34;;;;;;;4.93;1.73;;;;;;;;;;5003490;28;20177;-83
2021/04/10 10:23:48;;;;;;;3.33;1.50;;;;;;;;;;5013846;28;20204;-82
2021/04/10 10:26:52;;;;;;;3.30;1.73;;;;;;;;;;5011602;28;20216;-82
2021/04/10 10:29:57;;;;;;;3.70;1.67;;;;;;;;;;5029136;28;20196;-82
2021/04/10 10:33:05;;;;;;;3.37;1.70;;;;;;;;;;5011564;28;20205;-82
2021/04/10 10:36:10;;;;;;;6.63;1.60;;;;;;;;;;5013595;28;20178;-82
2021/04/10 10:39:35;;;;;;;3.67;1.63;;;;;;;;;;4991889;28;20178;-82
2021/04/10 10:42:39;;;;;;;7.50;2.30;;;;;;;;;;5012937;28;20192;-82
2021/04/10 10:45:48;;;;;;;4.00;1.70;;;;;;;;;;5022329;28;20209;-82
2021/04/10 10:48:53;;;;;;;3.67;1.43;;;;;;;;;;5011736;28;20229;-83
2021/04/10 10:51:57;;;;;;;6.50;2.07;;;;;;;;;;5022379;28;20181;-83
2021/04/10 10:55:02;;;;;;;7.30;1.87;;;;;;;;;;5034121;28;20177;-83
2021/04/10 10:58:06;;;;;;;6.13;1.60;;;;;;;;;;5011440;28;20216;-84
2021/04/10 11:01:22;;;;;;;2.97;1.97;;;;;;;;;;5022479;28;20197;-82
2021/04/10 11:04:29;;;;;;;5.57;2.20;;;;;;;;;;5014100;28;20182;-82
2021/04/10 11:07:33;;;;;;;6.73;1.70;;;;;;;;;;5027806;28;20224;-83
2021/04/10 11:10:38;;;;;;;5.03;1.70;;;;;;;;;;5026096;28;20543;-83
2021/04/10 11:13:47;;;;;;;7.13;2.00;;;;;;;;;;5011958;28;20580;-86
2021/04/10 11:16:53;;;;;;;8.63;1.83;;;;;;;;;;5002413;28;20514;-86
2021/04/10 11:19:59;;;;;;;4.17;1.77;;;;;;;;;;5002185;28;20197;-85
2021/04/10 11:23:06;;;;;;;5.33;1.70;;;;;;;;;;5013620;28;20174;-87
2021/04/10 11:26:10;;;;;;;4.37;2.10;;;;;;;;;;4991006;28;20209;-87
2021/04/10 11:29:30;;;;;;;3.23;2.00;;;;;;;;;;4990773;28;20185;-86
2021/04/10 11:32:44;;;;;;;4.67;1.90;;;;;;;;;;4990676;28;20637;-86
2021/04/10 11:35:57;;;;;;;4.20;1.77;;;;;;;;;;4994869;28;20193;-86
2021/04/10 15:57:35;;;;;;;8.33;2.50;;;;;;;;;;5033414;28;20216;-88
2021/04/10 16:00:39;;;;;;;3.87;2.40;;;;;;;;;;4999300;28;20663;-81
2021/04/10 16:03:43;;;;;;;3.40;2.40;;;;;;;;;;4999593;28;20196;-82
2021/04/10 16:06:47;;;;;;;5.20;2.70;;;;;;;;;;5017725;28;20191;-83
2021/04/10 16:09:51;;;;;;;3.60;2.00;;;;;;;;;;5019827;28;20176;-82
2021/04/10 16:12:57;;;;;;;12.10;6.53;;;;;;;;;;5033093;28;20550;-82
2021/04/10 16:16:01;;;;;;;3.07;2.07;;;;;;;;;;5049827;28;20677;-82
2021/04/10 16:19:05;;;;;;;7.93;2.30;;;;;;;;;;5061678;28;20188;-82
2021/04/10 16:22:09;;;;;;;5.23;2.20;;;;;;;;;;5032652;28;20188;-81
2021/04/10 16:25:14;;;;;;;4.67;2.20;;;;;;;;;;5017915;28;20183;-82
2021/04/10 16:28:18;;;;;;;5.23;2.60;;;;;;;;;;5040695;28;20274;-84
2021/04/10 16:31:23;;;;;;;4.63;2.50;;;;;;;;;;5040745;28;20176;-84
2021/04/10 16:34:27;;;;;;;6.10;2.43;;;;;;;;;;5052637;28;20188;-82
2021/04/10 16:37:31;;;;;;;5.57;2.60;;;;;;;;;;5031970;28;20226;-83
2021/04/10 16:40:36;;;;;;;4.57;2.73;;;;;;;;;;5044393;28;20192;-83
2021/04/10 16:43:40;;;;;;;3.60;2.20;;;;;;;;;;5021673;28;20192;-82
2021/04/10 16:46:44;;;;;;;5.43;2.30;;;;;;;;;;5033008;28;20180;-82
2021/04/10 16:49:48;;;;;;;6.07;2.90;;;;;;;;;;5032981;28;20639;-82
2021/04/10 16:52:53;;;;;;;5.07;2.57;;;;;;;;;;5044393;28;20192;-82
2021/04/10 16:55:57;;;;;;;4.40;2.67;;;;;;;;;;5044140;28;20176;-82
2021/04/10 16:59:01;;;;;;;7.07;2.90;;;;;;;;;;5044111;28;20532;-82
2021/04/10 17:02:06;;;;;;;6.73;3.30;;;;;;;;;;5043991;28;20536;-82
2021/04/10 17:05:11;;;;;;;4.93;2.63;;;;;;;;;;5044134;28;20229;-86
2021/04/10 17:08:15;;;;;;;7.13;2.60;;;;;;;;;;5044797;28;20207;-88
2021/04/10 17:11:20;;;;;;;8.37;2.90;;;;;;;;;;5033766;28;20211;-86
2021/04/10 17:14:25;;;;;;;7.07;2.97;;;;;;;;;;5033832;28;20555;-86
2021/04/10 17:17:29;;;;;;;5.17;3.33;;;;;;;;;;5005048;28;20216;-87
2021/04/10 17:20:35;;;;;;;6.07;3.07;;;;;;;;;;5004504;28;20189;-86
2021/04/10 17:23:40;;;;;;;5.30;2.97;;;;;;;;;;5018668;28;20184;-88
2021/04/10 17:26:45;;;;;;;7.90;3.30;;;;;;;;;;5021504;28;20180;-89
2021/04/10 17:29:50;;;;;;;5.60;3.00;;;;;;;;;;5013576;28;20185;-89
2021/04/10 17:32:55;;;;;;;6.00;2.87;;;;;;;;;;5025189;28;20181;-89
2021/04/10 17:36:01;;;;;;;6.10;3.00;;;;;;;;;;5013193;28;20536;-89
2021/04/10 17:39:06;;;;;;;6.33;2.67;;;;;;;;;;5010487;28;20181;-88
2021/04/10 17:42:11;;;;;;;5.30;2.73;;;;;;;;;;5003732;28;20204;-88
2021/04/10 17:45:19;;;;;;;4.73;2.60;;;;;;;;;;5001856;28;20196;-88
2021/04/10 17:48:24;;;;;;;6.53;2.40;;;;;;;;;;5000724;28;20823;-89
2021/04/10 17:51:28;;;;;;;4.87;2.10;;;;;;;;;;5037523;28;20199;-89
2021/04/10 17:54:33;;;;;;;4.83;2.60;;;;;;;;;;5021706;28;20204;-89
2021/04/10 17:57:37;;;;;;;4.17;2.40;;;;;;;;;;5021123;28;20231;-88
2021/04/10 18:00:41;;;;;;;5.17;2.57;;;;;;;;;;5042838;28;20203;-89
2021/04/10 18:03:45;;;;;;;7.43;2.70;;;;;;;;;;5020122;28;20176;-89
2021/04/10 18:06:49;;;;;;;3.93;2.30;;;;;;;;;;5031632;28;20631;-89
2021/04/10 18:09:54;;;;;;;4.83;2.47;;;;;;;;;;5000880;28;20181;-90
2021/04/10 18:13:04;;;;;;;5.40;2.80;;;;;;;;;;5012759;28;20531;-90
2021/04/10 18:16:08;;;;;;;4.30;2.77;;;;;;;;;;5019937;28;20188;-89
2021/04/10 18:19:13;;;;;;;5.70;2.10;;;;;;;;;;5020203;28;20172;-89
2021/04/10 18:22:17;;;;;;;9.83;2.97;;;;;;;;;;5031549;28;20185;-90
2021/04/10 18:25:25;;;;;;;6.43;2.70;;;;;;;;;;5019851;28;20185;-89
2021/04/10 18:28:29;;;;;;;5.50;2.53;;;;;;;;;;5030893;28;20207;-88
2021/04/10 18:31:34;;;;;;;4.80;2.70;;;;;;;;;;5019848;28;20184;-89
2021/04/10 18:34:39;;;;;;;4.43;2.63;;;;;;;;;;5020115;28;20181;-88
2021/04/10 18:37:43;;;;;;;4.37;2.43;;;;;;;;;;5030672;28;20228;-88
2021/04/10 18:40:48;;;;;;;4.13;2.40;;;;;;;;;;5019716;28;20634;-88
2021/04/10 18:43:54;;;;;;;9.63;2.67;;;;;;;;;;5030693;28;20192;-88
2021/04/10 18:46:58;;;;;;;7.17;2.53;;;;;;;;;;5019230;28;20689;-88
2021/04/10 18:50:06;;;;;;;6.67;2.90;;;;;;;;;;5011070;28;20644;-88
2021/04/10 18:53:10;;;;;;;7.03;3.60;;;;;;;;;;5010753;28;20632;-88
2021/04/10 18:56:19;;;;;;;4.90;3.50;;;;;;;;;;5030362;28;20192;-88
2021/04/10 18:59:24;;;;;;;7.40;3.83;;;;;;;;;;5019008;28;20199;-88
2021/04/10 19:02:28;;;;;;;6.97;4.07;;;;;;;;;;5024881;28;20188;-88
2021/04/10 19:05:32;;;;;;;5.93;4.00;;;;;;;;;;5030561;28;20188;-89
2021/04/10 19:08:37;;;;;;;6.67;3.87;;;;;;;;;;5019080;28;20690;-89
2021/04/10 19:11:44;;;;;;;6.13;3.70;;;;;;;;;;5010477;28;20205;-89
2021/04/10 19:14:48;;;;;;;9.57;4.83;;;;;;;;;;5017798;28;20191;-89
2021/04/10 19:17:52;;;;;;;6.80;4.17;;;;;;;;;;5018792;28;20556;-88
2021/04/10 19:20:57;;;;;;;5.40;3.50;;;;;;;;;;5029795;28;20180;-88
2021/04/10 19:24:07;;;;;;;6.83;3.80;;;;;;;;;;5018550;28;20200;-87
2021/04/10 19:27:19;;;;;;;5.70;3.67;;;;;;;;;;5020026;28;20730;-89
2021/04/10 19:30:24;;;;;;;5.73;3.80;;;;;;;;;;5018746;28;20299;-89
2021/04/10 19:33:31;;;;;;;4.87;3.40;;;;;;;;;;5029960;28;20180;-88
2021/04/10 19:36:42;;;;;;;8.17;3.80;;;;;;;;;;5020231;28;20184;-88
2021/04/10 19:39:46;;;;;;;9.33;3.47;;;;;;;;;;5018365;28;20172;-89
2021/04/10 19:42:52;;;;;;;7.17;3.63;;;;;;;;;;5018415;28;20180;-89
2021/04/10 19:46:00;;;;;;;9.30;3.70;;;;;;;;;;5018529;28;20172;-88
2021/04/10 19:49:07;;;;;;;4.33;3.40;;;;;;;;;;5009612;28;20551;-88
2021/04/10 19:52:12;;;;;;;7.70;3.83;;;;;;;;;;5021171;28;20549;-87
2021/04/10 19:55:22;;;;;;;8.60;3.83;;;;;;;;;;5021017;28;20185;-89
2021/04/10 19:58:34;;;;;;;5.20;3.47;;;;;;;;;;5021093;28;20221;-88
2021/04/10 20:01:39;;;;;;;7.50;4.27;;;;;;;;;;5009905;28;20193;-88
2021/04/10 20:04:44;;;;;;;9.10;3.97;;;;;;;;;;5020889;28;20656;-88
2021/04/10 20:07:48;;;;;;;7.63;4.00;;;;;;;;;;5021155;28;20216;-88
2021/04/10 20:10:52;;;;;;;10.13;4.60;;;;;;;;;;5009985;28;20180;-88
2021/04/10 20:13:57;;;;;;;6.43;4.00;;;;;;;;;;5013422;28;20177;-88
2021/04/10 20:17:01;;;;;;;6.50;3.90;;;;;;;;;;5002198;28;20560;-88
2021/04/10 20:20:06;;;;;;;6.30;4.53;;;;;;;;;;5014449;28;20185;-88
2021/04/10 20:23:19;;;;;;;6.63;4.17;;;;;;;;;;5033237;28;20176;-87
2021/04/10 20:26:25;;;;;;;8.23;3.90;;;;;;;;;;5021946;28;20180;-88
2021/04/10 20:29:29;;;;;;;10.17;4.40;;;;;;;;;;5044434;28;20172;-88
2021/04/10 20:32:34;;;;;;;12.30;4.23;;;;;;;;;;5033292;28;20180;-89
2021/04/10 20:35:38;;;;;;;9.93;4.30;;;;;;;;;;5044277;28;20196;-86
2021/04/10 20:38:45;;;;;;;7.30;4.70;;;;;;;;;;5021549;28;20223;-88
2021/04/10 20:42:05;;;;;;;12.33;4.63;;;;;;;;;;5021387;28;20200;-88
2021/04/10 20:45:10;;;;;;;8.40;4.53;;;;;;;;;;5021480;28;20177;-88
2021/04/10 20:48:14;;;;;;;6.37;4.00;;;;;;;;;;5021549;28;20208;-88
2021/04/10 20:51:22;;;;;;;9.57;4.53;;;;;;;;;;5021690;28;20176;-87
2021/04/10 20:54:26;;;;;;;9.37;4.37;;;;;;;;;;5021659;28;20176;-88
2021/04/10 20:57:30;;;;;;;5.87;4.53;;;;;;;;;;5032427;28;20219;-88
2021/04/10 21:00:34;;;;;;;8.10;4.53;;;;;;;;;;5032362;28;20200;-88
2021/04/10 21:03:38;;;;;;;7.13;4.97;;;;;;;;;;5032335;28;20180;-88
2021/04/10 21:06:44;;;;;;;9.13;5.17;;;;;;;;;;5032411;28;20192;-88
2021/04/10 21:09:48;;;;;;;8.70;5.00;;;;;;;;;;5021145;28;20176;-88
2021/04/10 21:12:53;;;;;;;6.90;5.13;;;;;;;;;;5032262;28;20195;-87
2021/04/10 21:15:57;;;;;;;7.13;4.60;;;;;;;;;;5032429;28;20686;-88
2021/04/10 21:19:24;;;;;;;9.17;4.90;;;;;;;;;;5031337;28;20224;-88
2021/04/10 21:22:28;;;;;;;7.07;4.90;;;;;;;;;;5049414;28;20221;-87
2021/04/10 21:25:33;;;;;;;6.30;5.00;;;;;;;;;;5040536;28;20179;-88
2021/04/10 21:28:37;;;;;;;9.03;5.37;;;;;;;;;;5052031;28;20211;-88
2021/04/10 21:31:41;;;;;;;8.63;4.60;;;;;;;;;;5051808;28;20519;-88
2021/04/10 21:34:46;;;;;;;9.97;5.17;;;;;;;;;;5040484;28;20184;-88
2021/04/10 21:37:51;;;;;;;8.47;5.57;;;;;;;;;;5040194;28;20219;-88
2021/04/10 21:40:55;;;;;;;7.77;4.70;;;;;;;;;;5052117;28;20183;-87
2021/04/10 21:44:00;;;;;;;8.57;4.57;;;;;;;;;;5036716;28;20204;-87
2021/04/10 21:47:04;;;;;;;6.57;4.93;;;;;;;;;;5036847;28;20223;-88
2021/04/10 21:50:11;;;;;;;8.03;4.60;;;;;;;;;;5051563;28;20187;-88
2021/04/10 21:53:15;;;;;;;7.90;4.90;;;;;;;;;;5040147;28;20176;-89
2021/04/10 21:56:20;;;;;;;8.43;4.97;;;;;;;;;;5040261;28;20179;-89
2021/04/10 21:59:24;;;;;;;10.37;5.50;;;;;;;;;;5051261;28;20219;-89
2021/04/10 22:02:28;;;;;;;8.03;5.13;;;;;;;;;;5062823;28;20192;-89
2021/04/10 22:05:33;;;;;;;8.73;5.00;;;;;;;;;;5040128;28;20188;-89
2021/04/10 22:08:37;;;;;;;6.43;5.00;;;;;;;;;;5043707;28;20216;-89
2021/04/10 22:14:44;;;;;;;7.97;5.33;;;;;;;;;;5072412;28;20211;-71
2021/04/10 22:17:49;;;;;;;10.63;5.30;;;;;;;;;;5062067;28;20669;-71
2021/04/10 22:20:54;;;;;;;8.40;5.67;;;;;;;;;;5054757;28;20204;-71
2021/04/10 22:24:00;;;;;;;8.27;5.07;;;;;;;;;;5053842;28;20196;-71
2021/04/10 22:27:04;;;;;;;9.27;4.90;;;;;;;;;;5034480;28;20532;-71
2021/04/10 22:30:11;;;;;;;7.53;5.17;;;;;;;;;;5029184;28;20216;-71
2021/04/10 22:33:17;;;;;;;11.50;5.33;;;;;;;;;;5054245;28;20181;-71
2021/04/10 22:36:22;;;;;;;7.43;5.20;;;;;;;;;;5031433;28;20188;-71
2021/04/10 22:39:26;;;;;;;8.10;5.07;;;;;;;;;;5053959;28;20227;-71
2021/04/10 22:42:30;;;;;;;7.40;5.23;;;;;;;;;;5053234;28;20204;-70
2021/04/10 22:45:36;;;;;;;11.83;4.63;;;;;;;;;;5046308;28;20642;-70
2021/04/10 22:48:40;;;;;;;7.43;4.67;;;;;;;;;;5053725;28;20232;-71
2021/04/10 22:51:45;;;;;;;6.20;4.80;;;;;;;;;;5044069;28;20211;-71
2021/04/10 22:54:49;;;;;;;8.27;4.97;;;;;;;;;;5053276;28;20192;-70
2021/04/10 22:57:54;;;;;;;8.40;5.20;;;;;;;;;;5053256;28;20651;-70
2021/04/10 23:00:58;;;;;;;6.87;4.30;;;;;;;;;;5041735;28;20639;-71